Terminal Aerodrome Forecast
Issued by NWS Bismarck, ND

Home | Current Version | Previous Version | Text Only | Print | Product List | Glossary On
Versions: 1 2 3 4 5 6 7 8 9 10 11 12 13 14 15 16 17 18 19
570
FTUS43 KBIS 080508 AAA
TAFBIS
TAF AMD
KBIS 080508Z 0805/0824 33027G38KT P6SM BKN035
     FM080800 33026G37KT P6SM BKN025
     FM081300 33022G31KT P6SM BKN070
     FM081700 33019G27KT P6SM SCT070
     FM082300 33013KT P6SM BKN200=

USA.gov is the U.S. government's official web portal to all federal, state and local government web resources and services.